createdAt,value
2018-05-16T00:00:23.225Z,61.02
2018-05-16T00:01:23.244Z,61.11
2018-05-16T00:02:23.262Z,61.11
2018-05-16T00:03:23.277Z,60.63
2018-05-16T00:04:23.296Z,61.11
2018-05-16T00:05:23.353Z,61.21
2018-05-16T00:06:23.334Z,60.53
2018-05-16T00:07:23.406Z,61.21
2018-05-16T00:08:23.373Z,61.11
2018-05-16T00:09:23.390Z,61.02
2018-05-16T00:10:23.409Z,60.72
2018-05-16T00:11:23.477Z,61.02
2018-05-16T00:12:23.447Z,60.92
2018-05-16T00:13:23.517Z,61.02
2018-05-16T00:14:23.502Z,61.49
2018-05-16T00:15:23.503Z,61.49
2018-05-16T00:16:23.520Z,61.49
2018-05-16T00:17:23.536Z,61.40
2018-05-16T00:18:23.559Z,61.88
2018-05-16T00:19:23.625Z,61.40
2018-05-16T00:20:23.596Z,61.69
2018-05-16T00:21:23.614Z,61.98
2018-05-16T00:22:23.631Z,61.21
2018-05-16T00:23:23.709Z,61.78
2018-05-16T00:24:23.670Z,61.30
2018-05-16T00:25:23.741Z,61.11
2018-05-16T00:26:23.703Z,61.21
2018-05-16T00:27:23.726Z,61.49
2018-05-16T00:28:23.742Z,61.02
2018-05-16T00:29:23.792Z,61.02
2018-05-16T00:30:23.786Z,61.49
2018-05-16T00:31:23.849Z,61.49
2018-05-16T00:32:23.816Z,61.21
2018-05-16T00:33:23.831Z,60.82
2018-05-16T00:34:23.852Z,60.63
2018-05-16T00:35:23.928Z,60.25
2018-05-16T00:36:23.887Z,60.38
2018-05-16T00:37:23.955Z,60.35
2018-05-16T00:38:23.922Z,59.70
2018-05-16T00:39:23.945Z,59.86
2018-05-16T00:40:23.964Z,59.61
2018-05-16T00:41:24.048Z,59.96
2018-05-16T00:42:23.998Z,59.48
2018-05-16T00:43:24.073Z,59.96
2018-05-16T00:44:24.037Z,59.96
2018-05-16T00:45:24.057Z,59.96
2018-05-16T00:46:24.070Z,60.05
2018-05-16T00:47:24.094Z,59.48
2018-05-16T00:48:24.107Z,59.29
2018-05-16T00:49:24.126Z,59.29
2018-05-16T00:50:24.145Z,59.32
2018-05-16T00:51:24.168Z,59.99
2018-05-16T00:52:24.184Z,59.61
2018-05-16T00:53:24.200Z,59.51
2018-05-16T00:54:24.222Z,59.29
2018-05-16T00:55:24.287Z,59.41
2018-05-16T00:56:24.259Z,58.94
2018-05-16T00:57:24.274Z,58.94
2018-05-16T00:58:24.297Z,59.03
2018-05-16T00:59:24.312Z,59.22
2018-05-16T01:00:24.330Z,59.03
2018-05-16T01:01:24.347Z,58.94
2018-05-16T01:02:24.366Z,59.12
2018-05-16T01:03:24.387Z,59.03
2018-05-16T01:04:24.400Z,59.41
2018-05-16T01:05:24.425Z,59.09
2018-05-16T01:06:24.439Z,59.09
2018-05-16T01:07:24.764Z,59.19
2018-05-16T01:08:24.474Z,58.94
2018-05-16T01:09:24.507Z,58.91
2018-05-16T01:10:24.517Z,59.09
2018-05-16T01:11:24.531Z,59.29
2018-05-16T01:12:24.606Z,59.19
2018-05-16T01:13:24.572Z,58.81
2018-05-16T01:14:24.593Z,59.29
2018-05-16T01:15:24.606Z,59.19
2018-05-16T01:16:24.634Z,59.96
2018-05-16T01:17:24.645Z,59.38
2018-05-16T01:18:24.685Z,59.29
2018-05-16T01:19:24.996Z,59.77
2018-05-16T01:20:24.704Z,59.86
2018-05-16T01:21:24.719Z,59.77
2018-05-16T01:22:24.754Z,59.86
2018-05-16T01:23:24.759Z,59.86
2018-05-16T01:24:24.781Z,59.86
2018-05-16T01:25:24.796Z,59.19
2018-05-16T01:26:24.824Z,59.38
2018-05-16T01:27:24.828Z,59.29
2018-05-16T01:28:24.847Z,59.67
2018-05-16T01:29:24.870Z,59.58
2018-05-16T01:30:24.888Z,59.29
2018-05-16T01:31:24.908Z,59.96
2018-05-16T01:32:24.920Z,59.38
2018-05-16T01:33:24.945Z,59.19
2018-05-16T01:34:24.959Z,59.09
2018-05-16T01:35:24.976Z,60.05
2018-05-16T01:36:24.993Z,59.48
2018-05-16T01:37:25.063Z,60.15
2018-05-16T01:38:25.036Z,59.67
2018-05-16T01:39:25.051Z,59.29
2018-05-16T01:40:25.076Z,59.48
2018-05-16T01:41:25.090Z,60.05
2018-05-16T01:42:25.110Z,60.25
2018-05-16T01:43:25.143Z,60.44
2018-05-16T01:44:25.142Z,60.35
2018-05-16T01:45:25.160Z,60.63
2018-05-16T01:46:25.186Z,61.02
2018-05-16T01:47:25.202Z,61.78
2018-05-16T01:48:25.219Z,61.46
2018-05-16T01:49:25.297Z,61.08
2018-05-16T01:50:25.255Z,62.04
2018-05-16T01:51:25.276Z,62.23
2018-05-16T01:52:25.296Z,62.71
2018-05-16T01:53:25.309Z,63.38
2018-05-16T01:54:25.329Z,62.90
2018-05-16T01:55:25.404Z,63.09
2018-05-16T01:56:25.364Z,63.19
2018-05-16T01:57:25.384Z,63.38
2018-05-16T01:58:25.408Z,63.67
2018-05-16T01:59:25.424Z,63.48
2018-05-16T02:00:25.445Z,63.96
2018-05-16T02:01:25.514Z,63.48
2018-05-16T02:02:25.513Z,63.57
2018-05-16T02:03:25.501Z,62.81
2018-05-16T02:04:25.517Z,62.90
2018-05-16T02:05:25.534Z,63.00
2018-05-16T02:06:25.555Z,62.90
2018-05-16T02:07:25.620Z,62.90
2018-05-16T02:08:25.585Z,62.90
2018-05-16T02:09:25.627Z,63.00
2018-05-16T02:10:25.635Z,63.29
2018-05-16T02:11:25.641Z,63.09
2018-05-16T02:12:25.661Z,63.38
2018-05-16T02:13:25.729Z,64.34
2018-05-16T02:14:25.747Z,64.34
2018-05-16T02:15:25.723Z,64.15
2018-05-16T02:16:25.737Z,63.96
2018-05-16T02:17:25.761Z,63.96
2018-05-16T02:18:25.772Z,64.34
2018-05-16T02:19:25.841Z,64.50
2018-05-16T02:20:25.872Z,64.98
2018-05-16T02:21:25.881Z,65.17
2018-05-16T02:22:25.847Z,65.17
2018-05-16T02:23:25.863Z,64.79
2018-05-16T02:24:25.890Z,65.84
2018-05-16T02:25:25.955Z,65.75
2018-05-16T02:26:25.941Z,65.75
2018-05-16T02:27:25.938Z,65.84
2018-05-16T02:28:25.955Z,66.38
2018-05-16T02:29:25.976Z,66.38
2018-05-16T02:30:25.999Z,66.77
2018-05-16T02:31:26.065Z,66.96
2018-05-16T02:32:26.175Z,67.82
2018-05-16T02:33:26.052Z,67.63
2018-05-16T02:34:26.070Z,68.11
2018-05-16T02:35:26.088Z,68.11
2018-05-16T02:36:26.105Z,68.11
2018-05-16T02:37:26.223Z,67.91
2018-05-16T02:38:26.143Z,67.72
2018-05-16T02:39:26.155Z,68.11
2018-05-16T02:40:26.175Z,68.01
2018-05-16T02:41:26.192Z,68.30
2018-05-16T02:42:26.213Z,68.40
2018-05-16T02:43:26.285Z,68.78
2018-05-16T02:44:26.287Z,68.59
2018-05-16T02:45:26.266Z,68.87
2018-05-16T02:46:26.283Z,68.78
2018-05-16T02:47:26.307Z,68.78
2018-05-16T02:48:26.324Z,69.17
2018-05-16T02:49:26.337Z,69.64
2018-05-16T02:50:26.354Z,69.74
2018-05-16T02:51:26.378Z,70.18
2018-05-16T02:52:26.398Z,70.18
2018-05-16T02:53:26.412Z,70.37
2018-05-16T02:54:26.503Z,70.66
2018-05-16T02:55:26.498Z,70.66
2018-05-16T02:56:26.467Z,71.14
2018-05-16T02:57:26.490Z,71.14
2018-05-16T02:58:26.499Z,71.33
2018-05-16T02:59:26.514Z,71.62
2018-05-16T03:00:26.540Z,71.42
2018-05-16T03:01:26.554Z,71.81
2018-05-16T03:02:26.571Z,71.81
2018-05-16T03:03:26.637Z,71.42
2018-05-16T03:04:26.611Z,72.48
2018-05-16T03:05:26.623Z,72.58
2018-05-16T03:06:26.640Z,72.77
2018-05-16T03:07:26.714Z,73.15
2018-05-16T03:08:26.683Z,73.54
2018-05-16T03:09:26.750Z,73.54
2018-05-16T03:10:26.713Z,73.72
2018-05-16T03:11:26.733Z,73.44
2018-05-16T03:12:26.754Z,74.01
2018-05-16T03:13:26.772Z,74.01
2018-05-16T03:14:26.784Z,73.54
2018-05-16T03:15:26.877Z,74.01
2018-05-16T03:16:26.817Z,73.72
2018-05-16T03:17:26.840Z,74.11
2018-05-16T03:18:26.854Z,74.30
2018-05-16T03:19:26.923Z,74.68
2018-05-16T03:20:26.889Z,74.49
2018-05-16T03:21:26.927Z,74.30
2018-05-16T03:22:26.925Z,74.68
2018-05-16T03:23:26.947Z,74.49
2018-05-16T03:24:26.964Z,75.07
2018-05-16T03:25:27.034Z,74.93
2018-05-16T03:26:27.010Z,75.07
2018-05-16T03:27:27.049Z,75.60
2018-05-16T03:28:27.031Z,75.31
2018-05-16T03:29:27.050Z,75.89
2018-05-16T03:30:27.077Z,76.46
2018-05-16T03:31:27.137Z,76.27
2018-05-16T03:32:27.106Z,76.27
2018-05-16T03:33:27.199Z,76.46
2018-05-16T03:34:27.139Z,76.37
2018-05-16T03:35:27.158Z,76.75
2018-05-16T03:36:27.183Z,76.75
2018-05-16T03:37:27.196Z,76.84
2018-05-16T03:38:27.208Z,76.75
2018-05-16T03:39:27.231Z,77.04
2018-05-16T03:40:27.247Z,77.70
2018-05-16T03:41:27.268Z,77.51
2018-05-16T03:42:27.284Z,77.23
2018-05-16T03:43:27.302Z,77.61
2018-05-16T03:44:27.322Z,77.42
2018-05-16T03:45:27.338Z,77.61
2018-05-16T03:46:27.354Z,77.70
2018-05-16T03:47:27.367Z,77.23
2018-05-16T03:48:27.390Z,77.70
2018-05-16T03:49:27.405Z,77.33
2018-05-16T03:50:27.422Z,77.61
2018-05-16T03:51:27.444Z,77.61
2018-05-16T03:52:27.461Z,77.13
2018-05-16T03:53:27.476Z,77.51
2018-05-16T03:54:27.497Z,77.04
2018-05-16T03:55:27.563Z,76.65
2018-05-16T03:56:27.528Z,76.94
2018-05-16T03:57:27.544Z,76.75
2018-05-16T03:58:27.642Z,77.04
2018-05-16T03:59:27.589Z,76.94
2018-05-16T04:00:27.606Z,77.42
2018-05-16T04:01:27.636Z,77.51
2018-05-16T04:02:27.646Z,77.70
2018-05-16T04:03:27.652Z,77.42
2018-05-16T04:04:27.704Z,77.51
2018-05-16T04:05:27.692Z,77.51
2018-05-16T04:06:27.712Z,77.80
2018-05-16T04:07:27.730Z,78.38
2018-05-16T04:08:27.739Z,78.14
2018-05-16T04:09:27.771Z,79.10
2018-05-16T04:10:27.824Z,79.20
2018-05-16T04:11:27.799Z,79.20
2018-05-16T04:12:27.820Z,79.39
2018-05-16T04:13:27.848Z,79.68
2018-05-16T04:14:27.849Z,79.68
2018-05-16T04:15:27.870Z,79.87
2018-05-16T04:16:27.883Z,79.58
2018-05-16T04:17:27.938Z,79.96
2018-05-16T04:18:27.921Z,80.06
2018-05-16T04:19:27.996Z,79.68
2018-05-16T04:20:27.964Z,79.96
2018-05-16T04:21:27.973Z,80.25
2018-05-16T04:22:27.994Z,80.16
2018-05-16T04:23:28.031Z,80.44
2018-05-16T04:24:28.026Z,80.44
2018-05-16T04:25:28.049Z,80.54
2018-05-16T04:26:28.057Z,79.96
2018-05-16T04:27:28.075Z,80.44
2018-05-16T04:28:28.097Z,80.35
2018-05-16T04:29:28.129Z,80.35
2018-05-16T04:30:28.130Z,80.35
2018-05-16T04:31:28.204Z,80.35
2018-05-16T04:32:28.168Z,80.54
2018-05-16T04:33:28.183Z,80.92
2018-05-16T04:34:28.199Z,80.73
2018-05-16T04:35:28.235Z,80.44
2018-05-16T04:36:28.234Z,80.82
2018-05-16T04:37:28.308Z,80.63
2018-05-16T04:38:28.268Z,80.35
2018-05-16T04:39:28.286Z,80.54
2018-05-16T04:40:28.308Z,80.35
2018-05-16T04:41:28.320Z,80.35
2018-05-16T04:42:28.340Z,80.25
2018-05-16T04:43:28.416Z,80.06
2018-05-16T04:44:28.373Z,80.25
2018-05-16T04:45:28.393Z,80.35
2018-05-16T04:46:28.409Z,80.16
2018-05-16T04:47:28.425Z,80.06
2018-05-16T04:48:28.521Z,79.87
2018-05-16T04:49:28.463Z,80.16
2018-05-16T04:50:28.479Z,79.77
2018-05-16T04:51:28.499Z,80.63
2018-05-16T04:52:28.513Z,80.35
2018-05-16T04:53:28.535Z,79.96
2018-05-16T04:54:28.600Z,80.16
2018-05-16T04:55:28.645Z,79.77
2018-05-16T04:56:28.585Z,80.06
2018-05-16T04:57:28.600Z,80.44
2018-05-16T04:58:28.620Z,79.96
2018-05-16T04:59:28.641Z,79.96
2018-05-16T05:00:28.652Z,80.16
2018-05-16T05:01:28.668Z,79.58
2018-05-16T05:02:28.688Z,79.96
2018-05-16T05:03:28.714Z,79.00
2018-05-16T05:04:28.732Z,79.00
2018-05-16T05:05:28.748Z,78.34
2018-05-16T05:06:28.813Z,79.10
2018-05-16T05:07:28.829Z,78.91
2018-05-16T05:08:28.789Z,79.00
2018-05-16T05:09:28.813Z,79.20
2018-05-16T05:10:28.832Z,79.39
2018-05-16T05:11:28.861Z,79.10
2018-05-16T05:12:28.870Z,79.58
2018-05-16T05:13:28.935Z,80.06
2018-05-16T05:14:28.897Z,79.68
2018-05-16T05:15:28.915Z,79.58
2018-05-16T05:16:28.933Z,79.58
2018-05-16T05:17:28.950Z,79.29
2018-05-16T05:18:29.147Z,79.68
2018-05-16T05:19:28.989Z,79.77
2018-05-16T05:20:28.999Z,79.39
2018-05-16T05:21:29.022Z,79.49
2018-05-16T05:22:29.039Z,79.20
2018-05-16T05:23:29.054Z,79.39
2018-05-16T05:24:29.093Z,79.68
2018-05-16T05:25:29.089Z,79.29
2018-05-16T05:26:29.125Z,79.68
2018-05-16T05:27:29.124Z,79.96
2018-05-16T05:28:29.141Z,79.68
2018-05-16T05:29:29.158Z,79.58
2018-05-16T05:30:29.176Z,79.87
2018-05-16T05:31:29.195Z,79.20
2018-05-16T05:32:29.206Z,79.77
2018-05-16T05:33:29.227Z,79.20
2018-05-16T05:34:29.246Z,79.20
2018-05-16T05:35:29.262Z,78.53
2018-05-16T05:36:29.277Z,79.39
2018-05-16T05:37:29.351Z,78.24
2018-05-16T05:38:29.310Z,78.86
2018-05-16T05:39:29.335Z,78.57
2018-05-16T05:40:29.349Z,78.53
2018-05-16T05:41:29.373Z,78.28
2018-05-16T05:42:29.386Z,78.38
2018-05-16T05:43:29.640Z,78.38
2018-05-16T05:44:29.414Z,78.19
2018-05-16T05:45:29.437Z,78.28
2018-05-16T05:46:29.452Z,78.47
2018-05-16T05:47:29.512Z,78.09
2018-05-16T05:48:29.491Z,79.20
2018-05-16T05:49:29.559Z,79.20
2018-05-16T05:50:29.526Z,78.38
2018-05-16T05:51:29.540Z,78.47
2018-05-16T05:52:29.554Z,78.09
2018-05-16T05:53:29.574Z,78.28
2018-05-16T05:54:29.593Z,78.38
2018-05-16T05:55:29.679Z,78.38
2018-05-16T05:56:29.624Z,77.61
2018-05-16T05:57:29.644Z,77.51
2018-05-16T05:58:29.659Z,78.38
2018-05-16T05:59:29.677Z,78.19
2018-05-16T06:00:29.708Z,78.38
2018-05-16T06:01:29.760Z,77.42
2018-05-16T06:02:29.729Z,77.13
2018-05-16T06:03:29.748Z,76.84
2018-05-16T06:04:29.767Z,76.46
2018-05-16T06:05:29.858Z,76.94
2018-05-16T06:06:29.796Z,77.33
2018-05-16T06:07:29.866Z,76.65
2018-05-16T06:08:29.831Z,76.65
2018-05-16T06:09:29.858Z,76.75
2018-05-16T06:10:29.869Z,76.37
2018-05-16T06:11:29.889Z,76.02
2018-05-16T06:12:29.906Z,75.26
2018-05-16T06:13:29.970Z,76.31
2018-05-16T06:14:29.941Z,75.07
2018-05-16T06:15:29.962Z,74.68
2018-05-16T06:16:29.972Z,74.68
2018-05-16T06:17:29.990Z,73.91
2018-05-16T06:18:30.010Z,73.82
2018-05-16T06:19:30.117Z,73.54
2018-05-16T06:20:30.049Z,73.09
2018-05-16T06:21:30.064Z,72.61
2018-05-16T06:22:30.089Z,72.71
2018-05-16T06:23:30.095Z,73.19
2018-05-16T06:24:30.116Z,73.66
2018-05-16T06:25:30.183Z,73.19
2018-05-16T06:26:30.196Z,73.95
2018-05-16T06:27:30.211Z,72.32
2018-05-16T06:28:30.187Z,71.56
2018-05-16T06:29:30.202Z,71.27
2018-05-16T06:30:30.220Z,71.11
2018-05-16T06:31:30.288Z,70.83
2018-05-16T06:32:30.317Z,69.96
2018-05-16T06:33:30.275Z,70.25
2018-05-16T06:34:30.294Z,70.25
2018-05-16T06:35:30.312Z,70.64
2018-05-16T06:36:30.335Z,70.57
2018-05-16T06:37:30.393Z,69.81
2018-05-16T06:38:30.429Z,70.57
2018-05-16T06:39:30.385Z,70.00
2018-05-16T06:40:30.403Z,69.74
2018-05-16T06:41:30.414Z,69.46
2018-05-16T06:42:30.438Z,68.50
2018-05-16T06:43:30.508Z,68.02
2018-05-16T06:44:30.471Z,67.38
2018-05-16T06:45:30.489Z,66.23
2018-05-16T06:46:30.504Z,65.40
2018-05-16T06:47:30.524Z,65.01
2018-05-16T06:48:30.546Z,64.63
2018-05-16T06:49:30.610Z,64.66
2018-05-16T06:50:30.590Z,64.28
2018-05-16T06:51:30.633Z,62.93
2018-05-16T06:52:30.631Z,62.26
2018-05-16T06:53:30.633Z,61.33
2018-05-16T06:54:30.654Z,61.81
2018-05-16T06:55:30.734Z,61.43
2018-05-16T06:56:30.704Z,61.71
2018-05-16T06:57:30.714Z,62.10
2018-05-16T06:58:30.735Z,60.88
2018-05-16T06:59:30.748Z,58.86
2018-05-16T07:00:30.765Z,58.40
2018-05-16T07:01:30.841Z,57.83
2018-05-16T07:02:30.810Z,57.06
2018-05-16T07:03:30.827Z,56.60
2018-05-16T07:04:30.844Z,57.86
2018-05-16T07:05:30.863Z,56.80
2018-05-16T07:06:30.933Z,56.54
2018-05-16T07:07:30.901Z,56.63
2018-05-16T07:08:30.922Z,58.17
2018-05-16T07:09:30.936Z,57.24
2018-05-16T07:10:30.962Z,57.12
2018-05-16T07:11:30.983Z,55.87
2018-05-16T07:12:31.048Z,55.67
2018-05-16T07:13:31.076Z,54.16
2018-05-16T07:14:31.043Z,56.27
2018-05-16T07:15:31.058Z,55.99
2018-05-16T07:16:31.076Z,54.16
2018-05-16T07:18:31.172Z,51.39
2018-05-16T07:19:31.174Z,50.81
2018-05-16T07:20:31.157Z,50.64
2018-05-16T07:21:31.181Z,50.26
2018-05-16T07:22:31.197Z,48.81
2018-05-16T07:23:31.217Z,48.74
2018-05-16T07:24:31.293Z,47.67
2018-05-16T07:25:31.331Z,48.06
2018-05-16T07:26:31.283Z,48.35
2018-05-16T07:27:31.304Z,48.37
2018-05-16T07:28:31.321Z,47.70
2018-05-16T07:29:31.340Z,47.02
2018-05-16T07:30:31.419Z,46.54
2018-05-16T07:31:31.385Z,46.34
2018-05-16T07:32:31.488Z,47.41
2018-05-16T07:33:31.424Z,46.64
2018-05-16T07:34:31.446Z,47.02
2018-05-16T07:35:31.466Z,46.64
2018-05-16T07:36:31.489Z,46.64
2018-05-16T07:37:31.545Z,46.56
2018-05-16T07:38:31.528Z,46.37
2018-05-16T07:39:31.553Z,46.47
2018-05-16T07:40:31.581Z,45.40
2018-05-16T07:41:31.655Z,46.30
2018-05-16T07:42:31.669Z,45.33
2018-05-16T07:43:31.637Z,44.07
2018-05-16T07:44:31.658Z,44.17
2018-05-16T07:45:31.677Z,43.41
2018-05-16T07:46:31.720Z,42.72
2018-05-16T07:47:31.720Z,42.65
2018-05-16T07:48:31.798Z,42.16
2018-05-16T07:49:31.766Z,42.18
2018-05-16T07:50:31.788Z,42.18
2018-05-16T07:51:31.806Z,42.28
2018-05-16T07:52:31.828Z,40.92
2018-05-16T07:53:31.858Z,41.33
2018-05-16T07:54:31.870Z,41.70
2018-05-16T07:55:31.900Z,40.25
2018-05-16T07:56:32.010Z,41.19
2018-05-16T07:57:31.943Z,41.77
2018-05-16T07:58:31.965Z,41.31
2018-05-16T07:59:31.984Z,41.31
2018-05-16T08:00:32.055Z,41.02
2018-05-16T08:01:32.033Z,40.44
2018-05-16T08:02:32.075Z,40.63
2018-05-16T08:03:32.069Z,40.92
2018-05-16T08:04:32.094Z,40.36
2018-05-16T08:05:32.117Z,40.96
2018-05-16T08:06:32.190Z,40.00
2018-05-16T08:07:32.162Z,40.09
2018-05-16T08:08:32.183Z,39.51
2018-05-16T08:09:32.224Z,39.22
2018-05-16T08:10:32.225Z,39.03
2018-05-16T08:11:32.248Z,37.49
2018-05-16T08:12:32.331Z,38.27
2018-05-16T08:13:32.293Z,39.06
2018-05-16T08:14:32.316Z,38.00
2018-05-16T08:15:32.342Z,36.72
2018-05-16T08:16:32.361Z,37.87
2018-05-16T08:17:32.388Z,38.64
2018-05-16T08:18:32.524Z,38.73
2018-05-16T08:19:32.425Z,38.25
2018-05-16T08:20:32.452Z,37.55
2018-05-16T08:21:32.470Z,38.53
2018-05-16T08:22:32.506Z,39.09
2018-05-16T08:23:32.528Z,39.29
2018-05-16T08:24:32.544Z,38.35
2018-05-16T08:25:32.566Z,37.77
2018-05-16T08:26:32.590Z,38.06
2018-05-16T08:27:32.625Z,37.77
2018-05-16T08:28:32.644Z,38.13
2018-05-16T08:29:32.668Z,39.01
2018-05-16T08:30:32.684Z,38.23
2018-05-16T08:31:32.699Z,38.62
2018-05-16T08:32:32.720Z,38.06
2018-05-16T08:33:32.792Z,38.13
2018-05-16T08:34:32.774Z,38.89
2018-05-16T08:35:32.791Z,39.01
2018-05-16T08:36:32.815Z,38.62
2018-05-16T08:37:32.838Z,38.13
2018-05-16T08:38:32.857Z,38.33
2018-05-16T08:39:32.914Z,37.96
2018-05-16T08:40:32.907Z,37.26
2018-05-16T08:41:32.925Z,37.85
2018-05-16T08:42:32.956Z,38.23
2018-05-16T08:43:32.975Z,38.64
2018-05-16T08:44:32.996Z,37.67
2018-05-16T08:45:33.083Z,36.91
2018-05-16T08:46:33.041Z,36.24
2018-05-16T08:47:33.068Z,36.62
2018-05-16T08:48:33.086Z,36.62
2018-05-16T08:49:33.113Z,35.96
2018-05-16T08:50:33.138Z,36.16
2018-05-16T08:51:33.150Z,35.28
2018-05-16T08:52:33.178Z,35.38
2018-05-16T08:53:33.246Z,35.19
2018-05-16T08:54:33.225Z,35.86
2018-05-16T08:55:33.247Z,35.77
2018-05-16T08:56:33.268Z,35.21
2018-05-16T08:57:33.291Z,35.49
2018-05-16T08:58:33.319Z,35.49
2018-05-16T08:59:33.393Z,35.30
2018-05-16T09:00:33.369Z,35.71
2018-05-16T09:01:33.386Z,35.43
2018-05-16T09:02:33.410Z,35.61
2018-05-16T09:03:33.430Z,35.90
2018-05-16T09:04:33.455Z,35.05
2018-05-16T09:05:33.527Z,35.43
2018-05-16T09:06:33.497Z,35.35
2018-05-16T09:07:33.520Z,34.59
2018-05-16T09:08:33.548Z,34.50
2018-05-16T09:09:33.570Z,33.81
2018-05-16T09:10:33.597Z,34.59
2018-05-16T09:11:33.669Z,34.67
2018-05-16T09:12:33.640Z,35.55
2018-05-16T09:13:33.675Z,35.14
2018-05-16T09:14:33.692Z,35.45
2018-05-16T09:15:33.742Z,35.27
2018-05-16T09:16:33.736Z,35.96
2018-05-16T09:17:33.807Z,35.66
2018-05-16T09:18:33.790Z,35.08
2018-05-16T09:19:33.809Z,35.78
2018-05-16T09:20:33.828Z,35.00
2018-05-16T09:21:33.856Z,34.32
2018-05-16T09:22:33.878Z,34.52
2018-05-16T09:23:33.902Z,33.73
2018-05-16T09:24:33.925Z,33.93
2018-05-16T09:25:33.954Z,34.50
2018-05-16T09:26:33.976Z,34.90
2018-05-16T09:27:34.080Z,33.34
2018-05-16T09:28:34.026Z,33.81
2018-05-16T09:29:34.102Z,34.97
2018-05-16T09:30:34.078Z,35.08
2018-05-16T09:31:34.102Z,34.79
2018-05-16T09:32:34.126Z,35.08
2018-05-16T09:33:34.172Z,34.61
2018-05-16T09:34:34.171Z,33.01
2018-05-16T09:35:34.198Z,34.11
2018-05-16T09:36:34.223Z,33.72
2018-05-16T09:37:34.243Z,34.52
2018-05-16T09:38:34.271Z,33.26
2018-05-16T09:39:34.327Z,34.32
2018-05-16T09:40:34.328Z,34.53
2018-05-16T09:41:34.343Z,33.26
2018-05-16T09:42:34.363Z,33.95
2018-05-16T09:43:34.388Z,33.86
2018-05-16T09:44:34.414Z,32.13
2018-05-16T09:45:34.499Z,32.15
2018-05-16T09:46:34.468Z,30.29
2018-05-16T09:47:34.493Z,30.65
2018-05-16T09:48:34.515Z,32.00
2018-05-16T09:49:34.541Z,31.92
2018-05-16T09:50:34.566Z,32.42
2018-05-16T09:51:34.597Z,31.07
2018-05-16T09:52:34.611Z,31.85
2018-05-16T09:53:34.690Z,31.16
2018-05-16T09:54:34.666Z,30.57
2018-05-16T09:55:34.690Z,30.38
2018-05-16T09:56:34.715Z,32.21
2018-05-16T09:57:34.738Z,32.50
2018-05-16T09:58:34.766Z,32.89
2018-05-16T09:59:34.843Z,32.21
2018-05-16T10:00:34.815Z,31.06
2018-05-16T10:01:34.840Z,31.53
2018-05-16T10:02:34.862Z,31.53
2018-05-16T10:03:34.891Z,32.11
2018-05-16T10:04:34.919Z,31.14
2018-05-16T10:05:34.991Z,30.57
2018-05-16T10:06:34.968Z,30.60
2018-05-16T10:07:34.990Z,30.10
2018-05-16T10:08:35.014Z,30.39
2018-05-16T10:09:35.073Z,28.47
2018-05-16T10:10:35.065Z,29.14
2018-05-16T10:11:35.093Z,29.74
2018-05-16T10:12:35.114Z,29.15
2018-05-16T10:13:35.143Z,29.54
2018-05-16T10:14:35.164Z,29.25
2018-05-16T10:15:35.186Z,29.75
2018-05-16T10:16:35.269Z,29.17
2018-05-16T10:17:35.244Z,29.17
2018-05-16T10:18:35.264Z,29.57
2018-05-16T10:19:35.329Z,28.69
2018-05-16T10:20:35.321Z,28.22
2018-05-16T10:21:35.347Z,27.12
2018-05-16T10:22:35.419Z,27.51
2018-05-16T10:23:35.391Z,27.20
2018-05-16T10:24:35.424Z,28.25
2018-05-16T10:25:35.443Z,29.24
2018-05-16T10:26:35.477Z,29.35
2018-05-16T10:27:35.501Z,28.57
2018-05-16T10:28:35.520Z,28.18
2018-05-16T10:29:35.549Z,28.68
2018-05-16T10:30:35.573Z,27.03
2018-05-16T10:31:35.601Z,28.29
2018-05-16T10:32:35.626Z,28.11
2018-05-16T10:33:35.653Z,26.35
2018-05-16T10:34:35.701Z,27.12
2018-05-16T10:35:35.707Z,28.00
2018-05-16T10:37:35.758Z,28.97
2018-05-16T10:38:35.781Z,28.30
2018-05-16T10:39:35.903Z,28.09
2018-05-16T10:40:35.883Z,28.97
2018-05-16T10:41:35.942Z,28.97
2018-05-16T10:42:35.897Z,29.07
2018-05-16T10:43:35.912Z,28.00
2018-05-16T10:44:35.944Z,29.79
2018-05-16T10:45:35.960Z,28.32
2018-05-16T10:46:36.087Z,27.44
2018-05-16T10:47:36.013Z,27.56
2018-05-16T10:48:36.045Z,26.64
2018-05-16T10:49:36.068Z,28.50
2018-05-16T10:50:36.091Z,28.19
2018-05-16T10:51:36.125Z,28.00
2018-05-16T10:52:36.217Z,28.29
2018-05-16T10:53:36.169Z,28.97
2018-05-16T10:54:36.198Z,28.58
2018-05-16T10:55:36.226Z,29.07
2018-05-16T10:56:36.260Z,28.97
2018-05-16T10:57:36.277Z,28.97
2018-05-16T10:58:36.373Z,28.50
2018-05-16T10:59:36.333Z,28.68
2018-05-16T11:00:36.354Z,29.27
2018-05-16T11:01:36.381Z,29.28
2018-05-16T11:02:36.415Z,29.08
2018-05-16T11:03:36.439Z,28.42
2018-05-16T11:04:36.546Z,28.52
2018-05-16T11:05:36.489Z,28.22
2018-05-16T11:06:36.510Z,28.99
2018-05-16T11:07:36.537Z,30.37
2018-05-16T11:08:36.562Z,29.21
2018-05-16T11:09:36.590Z,29.21
2018-05-16T11:10:36.754Z,29.13
2018-05-16T11:11:36.648Z,28.64
2018-05-16T11:12:36.672Z,27.66
2018-05-16T11:13:36.703Z,27.17
2018-05-16T11:14:36.721Z,28.15
2018-05-16T11:15:36.756Z,27.38
2018-05-16T11:16:36.783Z,28.36
2018-05-16T11:17:36.801Z,27.49
2018-05-16T11:18:36.830Z,27.08
2018-05-16T11:19:36.859Z,27.45
2018-05-16T11:20:36.884Z,28.64
2018-05-16T11:21:36.912Z,27.48
2018-05-16T11:22:36.936Z,28.08
2018-05-16T11:23:36.964Z,27.61
2018-05-16T11:24:36.991Z,26.83
2018-05-16T11:25:37.015Z,27.23
2018-05-16T11:26:37.044Z,26.44
2018-05-16T11:27:37.100Z,25.76
2018-05-16T11:28:37.144Z,27.01
2018-05-16T11:29:37.128Z,28.26
2018-05-16T11:30:37.153Z,28.15
2018-05-16T11:31:37.405Z,27.55
2018-05-16T11:32:37.206Z,27.76
2018-05-16T11:33:37.234Z,27.27
2018-05-16T11:34:37.307Z,27.37
2018-05-16T11:35:37.289Z,27.56
2018-05-16T11:36:37.320Z,26.99
2018-05-16T11:37:37.339Z,26.21
2018-05-16T11:38:37.363Z,27.09
2018-05-16T11:39:37.449Z,26.51
2018-05-16T11:40:37.422Z,26.14
2018-05-16T11:41:37.443Z,25.06
2018-05-16T11:42:37.473Z,26.23
2018-05-16T11:43:37.496Z,26.14
2018-05-16T11:44:37.529Z,26.32
2018-05-16T11:45:37.554Z,24.96
2018-05-16T11:46:37.586Z,26.23
2018-05-16T11:47:37.610Z,25.95
2018-05-16T11:48:37.635Z,25.66
2018-05-16T11:49:37.664Z,25.84
2018-05-16T11:50:37.687Z,25.74
2018-05-16T11:51:37.712Z,25.07
2018-05-16T11:52:37.745Z,24.38
2018-05-16T11:53:37.770Z,24.77
2018-05-16T11:54:37.797Z,24.11
2018-05-16T11:55:37.836Z,23.53
2018-05-16T11:56:37.849Z,24.32
2018-05-16T11:57:37.882Z,24.71
2018-05-16T11:58:37.912Z,24.42
2018-05-16T11:59:37.939Z,24.04
2018-05-16T12:00:37.964Z,24.20
2018-05-16T12:01:37.986Z,23.71
2018-05-16T12:02:38.024Z,23.61
2018-05-16T12:03:38.043Z,23.82
2018-05-16T12:04:38.075Z,24.19
2018-05-16T12:05:38.104Z,24.29
2018-05-16T12:06:38.126Z,25.27
2018-05-16T12:07:38.162Z,24.40
2018-05-16T12:08:38.189Z,24.49
2018-05-16T12:09:38.210Z,22.83
2018-05-16T12:10:38.354Z,24.21
2018-05-16T12:11:38.270Z,24.30
2018-05-16T12:12:38.300Z,22.61
2018-05-16T12:13:38.327Z,24.43
2018-05-16T12:14:38.391Z,25.39
2018-05-16T12:15:38.377Z,26.15
2018-05-16T12:16:38.490Z,26.37
2018-05-16T12:17:38.442Z,26.17
2018-05-16T12:18:38.465Z,25.98
2018-05-16T12:19:38.485Z,25.96
2018-05-16T12:20:38.521Z,26.82
2018-05-16T12:21:38.568Z,26.63
2018-05-16T12:22:38.618Z,27.02
2018-05-16T12:23:38.601Z,27.15
2018-05-16T12:24:38.628Z,26.10
2018-05-16T12:25:38.654Z,25.45
2018-05-16T12:26:38.684Z,24.04
2018-05-16T12:27:38.708Z,25.21
2018-05-16T12:28:38.817Z,25.89
2018-05-16T12:29:38.763Z,26.15
2018-05-16T12:30:38.788Z,26.53
2018-05-16T12:31:38.814Z,25.96
2018-05-16T12:32:38.845Z,26.82
2018-05-16T12:33:38.877Z,25.65
2018-05-16T12:34:38.957Z,26.95
2018-05-16T12:35:38.929Z,25.43
2018-05-16T12:36:38.975Z,24.85
2018-05-16T12:37:38.973Z,22.20
2018-05-16T12:38:38.999Z,23.77
2018-05-16T12:39:39.030Z,23.70
2018-05-16T12:40:39.070Z,24.01
2018-05-16T12:41:39.088Z,23.61
2018-05-16T12:42:39.110Z,23.92
2018-05-16T12:43:39.138Z,23.52
2018-05-16T12:44:39.168Z,23.44
2018-05-16T12:45:39.195Z,21.67
2018-05-16T12:46:39.289Z,22.66
2018-05-16T12:47:39.245Z,22.56
2018-05-16T12:48:39.271Z,22.67
2018-05-16T12:49:39.299Z,21.87
2018-05-16T12:50:39.325Z,22.46
2018-05-16T12:51:39.356Z,21.48
2018-05-16T12:52:39.387Z,21.59
2018-05-16T12:53:39.405Z,20.81
2018-05-16T12:56:39.491Z,20.34